LPPTLPPR

Guest
Details From LPPT - Lisboa
To LPPR - Porto
Flight Number -
Tags decoded
Created
Modified
Stats Distance 150 nm / 277 km
Max Altitude 0 ft / 0 m
Waypoints 2
Social Downloads 6
Likes 0
Share VATSIM

Download

Looking for another format? Having issues loading an existing format? Contact us
Advertisement - Login to hide

Notes

Requested: LPPT INBOM ABLEG LPPR Unmatched points: INBOM

Route

LPPT LPPR

ID Type Via Altitude Latitude Longitude Leg Dist Tot Dist Heading (true) Name
O LPPT APT - 0 ft / 0 m 38.77856˚ -9.13515˚ - 0 nm - Lisboa
O LPPR APT - 0 ft / 0 m 41.24793˚ -8.68122˚ 149 nm 149 nm 8° / 8° Porto

Altitude Profile

Advertisement - Login to hide

LPPT

Details ICAO LPPT (LIS)
Name Lisboa
Region Portugal
Timezone Europe/Lisbon (UTC+1.0)
Stats Elevation 374 ft / 114 m (AMSL)
Location 38.778559° -9.135146°
Runways 2
Magnetic Variation 2.308° W

METAR

LPPT 272000Z 34013KT 300V010 9999 FEW016 SCT026 15/11 Q1017

Decode

TAF

TAF LPPT 271700Z 2718/2824 33017KT 9999 SCT020 BECMG 2720/2723 33010KT FEW010 BKN015 PROB30 TEMPO 2806/2810 6000 -RA SCT006 BKN012 BECMG 2810/2813 33015KT SCT018 SCT030

Decode

Departure Runways

ID Width Length Bearing (true) Bearing (mag) Surface Threshold Offset Overrun Length
03 148 ft / 45 m 12,518 ft / 3,815 m 22.70° 25.01° Asphalt 296 ft / 90 m 0 ft / 0 m
17 148 ft / 45 m 7,922 ft / 2,415 m 168.38° 170.69° Asphalt 0 ft / 0 m 0 ft / 0 m
21 148 ft / 45 m 12,518 ft / 3,815 m 202.72° 205.03° Asphalt 1,969 ft / 600 m 0 ft / 0 m
35 148 ft / 45 m 7,922 ft / 2,415 m 348.38° 350.69° Asphalt 492 ft / 150 m 0 ft / 0 m

LPPR

Details ICAO LPPR (OPO)
Name Porto
Region Portugal
Timezone Europe/Lisbon (UTC+1.0)
Stats Elevation 228 ft / 69 m (AMSL)
Location 41.247932° -8.681221°
Runways 1
Magnetic Variation 2.281° W

METAR

LPPR 272000Z 33012KT 9999 SCT012 14/12 Q1017

Decode

TAF

TAF LPPR 271700Z 2718/2818 33017KT 9999 SCT015 BECMG 2718/2721 35010KT FEW008 BKN015 BECMG 2800/2803 VRB03KT 7000 SCT005 BKN010 PROB40 TEMPO 2803/2808 3000 BR SCT002 BKN004 BECMG 2808/2811 34010KT FEW018 SCT030 BECMG 2813/2815 33017KT

Decode

Destination Runways

ID Width Length Bearing (true) Bearing (mag) Surface Threshold Offset Overrun Length
17 148 ft / 45 m 11,451 ft / 3,490 m 168.88° 171.16° Asphalt 984 ft / 300 m 220 ft / 67 m
35 148 ft / 45 m 11,451 ft / 3,490 m 348.89° 351.17° Asphalt 492 ft / 150 m 370 ft / 113 m

Approach Navaids

Runway Type Ident Frequency Range Bearing (true) Bearing (mag) Slope Elevation
17 Localiser PR 109.90 MHz 18 nm / 33 km 168.87° 171.15° - 228 ft / 69 m (AMSL)
17 Glidescope PR 109.90 MHz 10 nm / 19 km 168.88° 171.17° 2.72° 228 ft / 69 m (AMSL)
17 DME PR 109.90 MHz 18 nm / 33 km - - - 228 ft / 69 m (AMSL)

Popular Alternatives